Time;durP1;ratioP1;P1;durP2;ratioP2;P2;SDS_P1;SDS_P2;PMS_P1;PMS_P2;Temp;Humidity;BMP_temperature;BMP_pressure;BME280_temperature;BME280_humidity;BME280_pressure;Samples;Min_cycle;Max_cycle;Signal;HPM_P1;HPM_P2
2021/12/29 00:00:27;;;;;;;;;;;6.50;86.90;;;;;;6071045;23;20350;-78
2021/12/29 00:02:55;;;;;;;;;;;6.50;86.90;;;;;;6070871;23;19921;-79
2021/12/29 00:05:23;;;;;;;;;;;6.50;86.70;;;;;;6095636;23;19921;-79
2021/12/29 00:07:50;;;;;;;;;;;6.50;86.60;;;;;;6070698;23;19972;-80
2021/12/29 00:10:18;;;;;;;;;;;6.40;86.70;;;;;;6070103;23;19945;-81
2021/12/29 00:12:51;;;;;;;;;;;6.30;86.90;;;;;;6071992;23;19925;-81
2021/12/29 00:15:20;;;;;;;;;;;6.30;87.30;;;;;;6069927;23;19921;-80
2021/12/29 00:17:47;;;;;;;;;;;6.30;86.50;;;;;;6071248;23;20347;-78
2021/12/29 00:20:15;;;;;;;;;;;6.30;86.70;;;;;;6070265;23;19944;-79
2021/12/29 00:22:42;;;;;;;;;;;6.20;86.90;;;;;;6071476;23;19928;-78
2021/12/29 00:25:09;;;;;;;;;;;6.10;86.90;;;;;;6071615;23;20257;-80
2021/12/29 00:27:36;;;;;;;;;;;6.10;87.20;;;;;;6095726;23;20536;-81
2021/12/29 00:30:04;;;;;;;;;;;6.10;87.10;;;;;;6096547;23;20342;-78
2021/12/29 00:32:30;;;;;;;;;;;6.00;87.10;;;;;;6070944;23;19930;-80
2021/12/29 00:34:57;;;;;;;;;;;6.00;87.00;;;;;;6070396;23;19928;-80
2021/12/29 00:37:25;;;;;;;;;;;6.00;87.20;;;;;;6070610;23;19939;-81
2021/12/29 00:39:52;;;;;;;;;;;6.00;87.40;;;;;;6071586;23;19925;-81
2021/12/29 00:42:19;;;;;;;;;;;6.00;87.30;;;;;;6070772;23;20287;-78
2021/12/29 00:44:46;;;;;;;;;;;5.90;87.40;;;;;;6071675;23;19921;-79
2021/12/29 00:47:13;;;;;;;;;;;5.90;87.60;;;;;;6091573;23;19921;-80
2021/12/29 00:49:41;;;;;;;;;;;5.80;87.50;;;;;;6126099;23;19925;-80
2021/12/29 00:52:09;;;;;;;;;;;5.80;87.50;;;;;;6100249;23;20357;-80
2021/12/29 00:54:36;;;;;;;;;;;5.70;87.90;;;;;;6100212;23;19924;-79
2021/12/29 00:57:03;;;;;;;;;;;5.70;87.90;;;;;;6101627;23;19921;-81
2021/12/29 00:59:30;;;;;;;;;;;5.70;88.10;;;;;;6100977;23;19920;-80
2021/12/29 01:01:57;;;;;;;;;;;5.70;88.30;;;;;;6101803;23;20405;-80
2021/12/29 01:04:24;;;;;;;;;;;5.60;87.90;;;;;;6127017;23;19920;-78
2021/12/29 01:06:52;;;;;;;;;;;5.60;88.50;;;;;;6101937;23;19924;-81
2021/12/29 01:09:19;;;;;;;;;;;5.50;88.40;;;;;;6101137;23;19927;-78
2021/12/29 01:11:47;;;;;;;;;;;5.40;89.00;;;;;;6101772;23;19921;-78
2021/12/29 01:14:13;;;;;;;;;;;5.30;89.40;;;;;;6100590;23;19924;-79
2021/12/29 01:16:40;;;;;;;;;;;5.20;89.00;;;;;;6101676;23;20298;-78
2021/12/29 01:19:28;;;;;;;;;;;5.20;89.30;;;;;;6102472;23;19976;-81
2021/12/29 01:21:57;;;;;;;;;;;5.30;89.40;;;;;;6101447;23;19921;-79
2021/12/29 01:24:26;;;;;;;;;;;5.10;90.10;;;;;;6101842;23;20262;-80
2021/12/29 01:26:54;;;;;;;;;;;5.10;90.20;;;;;;6100224;23;19921;-80
2021/12/29 01:29:21;;;;;;;;;;;5.10;90.10;;;;;;6101025;23;20346;-81
2021/12/29 01:31:49;;;;;;;;;;;5.10;90.00;;;;;;6100752;23;19921;-79
2021/12/29 01:34:16;;;;;;;;;;;5.10;90.20;;;;;;6100547;23;19935;-79
2021/12/29 01:36:42;;;;;;;;;;;5.00;90.40;;;;;;6100636;23;19920;-79
2021/12/29 01:39:11;;;;;;;;;;;5.00;90.40;;;;;;6101837;23;19972;-79
2021/12/29 01:41:38;;;;;;;;;;;5.00;90.50;;;;;;6100619;23;19921;-81
2021/12/29 01:44:05;;;;;;;;;;;5.10;90.50;;;;;;6101276;23;20338;-80
2021/12/29 01:46:32;;;;;;;;;;;5.20;90.50;;;;;;6100485;23;19921;-79
2021/12/29 01:48:59;;;;;;;;;;;5.20;90.40;;;;;;6101586;23;19921;-78
2021/12/29 01:51:26;;;;;;;;;;;5.20;90.30;;;;;;6101197;23;19929;-81
2021/12/29 01:54:14;;;;;;;;;;;5.30;90.30;;;;;;6101252;23;19925;-80
2021/12/29 01:56:41;;;;;;;;;;;5.30;90.20;;;;;;6126271;23;20368;-79
2021/12/29 01:59:08;;;;;;;;;;;5.50;90.00;;;;;;6102324;23;19984;-79
2021/12/29 02:01:35;;;;;;;;;;;5.50;90.00;;;;;;6126473;23;19928;-79
2021/12/29 02:04:02;;;;;;;;;;;5.80;90.20;;;;;;6101133;23;19976;-79
2021/12/29 02:06:29;;;;;;;;;;;5.90;89.00;;;;;;6076955;23;19961;-81
2021/12/29 02:08:57;;;;;;;;;;;5.70;87.90;;;;;;6100404;23;19925;-81
2021/12/29 02:11:29;;;;;;;;;;;5.70;87.90;;;;;;6100752;23;19928;-81
2021/12/29 02:14:00;;;;;;;;;;;5.70;88.10;;;;;;6100574;23;19924;-78
2021/12/29 02:16:27;;;;;;;;;;;5.70;89.00;;;;;;6100787;23;19925;-81
2021/12/29 02:18:55;;;;;;;;;;;5.80;88.50;;;;;;6099953;23;19969;-78
2021/12/29 02:21:24;;;;;;;;;;;5.90;87.90;;;;;;6100846;23;19969;-81
2021/12/29 02:26:38;;;;;;;;;;;5.80;87.50;;;;;;6125851;23;19940;-79
2021/12/29 02:29:06;;;;;;;;;;;5.80;87.40;;;;;;6100539;23;19921;-80
2021/12/29 02:31:33;;;;;;;;;;;5.80;87.50;;;;;;6100455;23;19921;-78
2021/12/29 02:34:00;;;;;;;;;;;5.80;87.80;;;;;;6100745;23;19980;-78
2021/12/29 02:36:28;;;;;;;;;;;5.80;87.50;;;;;;6100525;23;19952;-78
2021/12/29 02:38:56;;;;;;;;;;;5.70;87.20;;;;;;6099873;23;20361;-79
2021/12/29 02:41:24;;;;;;;;;;;5.70;87.50;;;;;;6100891;23;20342;-81
2021/12/29 02:43:59;;;;;;;;;;;5.60;87.90;;;;;;6125112;23;19921;-81
2021/12/29 02:46:26;;;;;;;;;;;5.50;88.10;;;;;;6100576;23;19995;-79
2021/12/29 02:48:59;;;;;;;;;;;5.40;88.60;;;;;;6100244;23;19976;-78
2021/12/29 02:51:26;;;;;;;;;;;5.40;88.70;;;;;;6100969;23;19929;-79
2021/12/29 02:53:53;;;;;;;;;;;5.40;88.80;;;;;;6100175;23;19946;-79
2021/12/29 02:56:22;;;;;;;;;;;5.30;89.20;;;;;;6100244;23;19974;-78
2021/12/29 02:58:49;;;;;;;;;;;5.20;89.40;;;;;;6099873;23;20019;-81
2021/12/29 03:01:16;;;;;;;;;;;5.30;89.40;;;;;;6126041;23;19920;-78
2021/12/29 03:03:43;;;;;;;;;;;5.20;89.30;;;;;;6100006;23;19921;-81
2021/12/29 03:06:11;;;;;;;;;;;5.20;89.30;;;;;;6126287;23;20235;-79
2021/12/29 03:08:38;;;;;;;;;;;5.20;89.40;;;;;;6100016;23;19945;-79
2021/12/29 03:11:05;;;;;;;;;;;5.20;89.50;;;;;;6100021;23;20358;-79
2021/12/29 03:13:33;;;;;;;;;;;5.10;89.40;;;;;;6099967;23;19921;-77
2021/12/29 03:16:00;;;;;;;;;;;5.10;89.40;;;;;;6099452;23;19932;-80
2021/12/29 03:18:27;;;;;;;;;;;5.10;89.50;;;;;;6100099;23;20342;-80
2021/12/29 03:20:54;;;;;;;;;;;5.00;89.90;;;;;;6099917;23;20022;-79
2021/12/29 03:23:21;;;;;;;;;;;5.00;90.10;;;;;;6100529;23;19920;-78
2021/12/29 03:25:48;;;;;;;;;;;4.90;90.10;;;;;;6099380;23;19972;-80
2021/12/29 03:28:16;;;;;;;;;;;4.90;90.10;;;;;;6100998;23;20239;-78
2021/12/29 03:30:46;;;;;;;;;;;4.90;90.00;;;;;;6099554;23;19944;-80
2021/12/29 03:33:13;;;;;;;;;;;4.80;90.00;;;;;;6100351;23;19921;-78
2021/12/29 03:35:41;;;;;;;;;;;4.70;90.10;;;;;;6099809;23;19925;-78
2021/12/29 03:38:09;;;;;;;;;;;4.60;90.20;;;;;;6077280;23;19921;-79
2021/12/29 03:40:36;;;;;;;;;;;4.50;90.60;;;;;;6100001;23;19924;-81
2021/12/29 03:43:04;;;;;;;;;;;4.40;90.80;;;;;;6098464;23;19972;-80
2021/12/29 03:45:31;;;;;;;;;;;4.40;90.60;;;;;;6100284;23;19975;-80
2021/12/29 03:47:58;;;;;;;;;;;4.30;90.90;;;;;;6071497;23;19921;-79
2021/12/29 03:50:25;;;;;;;;;;;4.20;91.20;;;;;;6071151;23;19972;-79
2021/12/29 03:52:52;;;;;;;;;;;4.20;91.30;;;;;;6095659;23;19921;-80
2021/12/29 03:55:19;;;;;;;;;;;4.10;91.30;;;;;;6071242;23;20004;-79
2021/12/29 03:57:46;;;;;;;;;;;4.10;91.30;;;;;;6070319;23;19928;-79
2021/12/29 04:00:14;;;;;;;;;;;4.10;91.30;;;;;;6070561;23;19925;-80
2021/12/29 04:02:41;;;;;;;;;;;4.10;91.40;;;;;;6047247;23;19928;-79
2021/12/29 04:05:12;;;;;;;;;;;4.10;91.30;;;;;;6070792;23;19944;-79
2021/12/29 04:07:39;;;;;;;;;;;4.10;91.40;;;;;;6071205;23;20401;-81
2021/12/29 04:10:07;;;;;;;;;;;4.00;91.50;;;;;;6070957;23;19921;-80
2021/12/29 04:12:34;;;;;;;;;;;3.90;91.70;;;;;;6071155;23;19922;-78
2021/12/29 04:15:00;;;;;;;;;;;3.90;91.60;;;;;;6070810;23;20339;-80
2021/12/29 04:17:36;;;;;;;;;;;3.80;91.40;;;;;;6071350;23;20339;-78
2021/12/29 04:22:52;;;;;;;;;;;3.80;91.70;;;;;;6095789;23;20405;-80
2021/12/29 04:25:24;;;;;;;;;;;3.70;91.90;;;;;;6071603;23;19926;-79
2021/12/29 04:27:54;;;;;;;;;;;3.80;92.00;;;;;;6070544;23;19921;-79
2021/12/29 04:30:22;;;;;;;;;;;3.80;92.10;;;;;;6073242;23;20402;-81
2021/12/29 04:32:52;;;;;;;;;;;3.80;92.00;;;;;;6072242;23;19967;-80
2021/12/29 04:35:19;;;;;;;;;;;4.10;92.90;;;;;;6072887;23;19921;-77
2021/12/29 04:37:46;;;;;;;;;;;4.20;92.70;;;;;;6072096;23;20129;-78
2021/12/29 04:40:13;;;;;;;;;;;4.30;92.70;;;;;;6072723;23;19926;-80
2021/12/29 04:42:40;;;;;;;;;;;4.40;92.50;;;;;;6098612;23;20401;-81
2021/12/29 04:45:07;;;;;;;;;;;4.50;92.30;;;;;;6072428;23;19922;-79
2021/12/29 04:47:39;;;;;;;;;;;4.40;91.40;;;;;;6097617;23;19932;-79
2021/12/29 04:50:13;;;;;;;;;;;4.30;91.10;;;;;;6101363;23;19976;-81
2021/12/29 04:52:40;;;;;;;;;;;4.00;91.30;;;;;;6101923;23;19952;-79
2021/12/29 04:55:07;;;;;;;;;;;4.00;91.50;;;;;;6100297;23;19996;-80
2021/12/29 04:57:34;;;;;;;;;;;4.10;92.40;;;;;;6101653;23;19925;-79
2021/12/29 05:00:02;;;;;;;;;;;4.30;91.80;;;;;;6099025;23;20372;-80
2021/12/29 05:02:29;;;;;;;;;;;4.30;91.80;;;;;;6101542;23;19956;-81
2021/12/29 05:05:00;;;;;;;;;;;4.70;91.80;;;;;;6101547;23;19944;-78
2021/12/29 05:10:13;;;;;;;;;;;4.90;91.10;;;;;;6126871;23;19938;-77
2021/12/29 05:12:39;;;;;;;;;;;5.10;90.30;;;;;;6101321;23;20346;-81
2021/12/29 05:15:06;;;;;;;;;;;4.90;90.10;;;;;;6100384;23;20373;-81
2021/12/29 05:17:33;;;;;;;;;;;4.90;90.00;;;;;;6101114;23;19972;-80
2021/12/29 05:20:00;;;;;;;;;;;4.90;90.40;;;;;;6100752;23;19925;-78
2021/12/29 05:22:27;;;;;;;;;;;4.90;90.00;;;;;;6101845;23;19925;-81
2021/12/29 05:24:53;;;;;;;;;;;4.90;90.00;;;;;;6100674;23;19925;-79
2021/12/29 05:27:20;;;;;;;;;;;5.00;89.90;;;;;;6101190;23;19929;-78
2021/12/29 05:29:47;;;;;;;;;;;5.10;89.10;;;;;;6101804;23;20342;-81
2021/12/29 05:32:14;;;;;;;;;;;5.00;89.20;;;;;;6101037;23;20228;-78
2021/12/29 05:34:41;;;;;;;;;;;4.90;89.20;;;;;;6101557;23;20022;-78
2021/12/29 05:37:08;;;;;;;;;;;4.80;89.30;;;;;;6100913;23;19921;-81
2021/12/29 05:39:35;;;;;;;;;;;4.80;89.20;;;;;;6101370;23;19921;-81
2021/12/29 05:42:02;;;;;;;;;;;4.90;89.10;;;;;;6100910;23;19925;-78
2021/12/29 05:44:29;;;;;;;;;;;4.80;89.20;;;;;;6101562;23;19928;-80
2021/12/29 05:46:56;;;;;;;;;;;4.80;89.40;;;;;;6108795;23;19921;-80
2021/12/29 05:49:22;;;;;;;;;;;5.00;88.90;;;;;;6072108;23;19968;-79
2021/12/29 05:51:50;;;;;;;;;;;6.00;86.20;;;;;;6096977;23;19932;-79
2021/12/29 05:54:16;;;;;;;;;;;7.10;80.20;;;;;;6096052;23;20492;-80
2021/12/29 05:56:43;;;;;;;;;;;8.60;72.90;;;;;;6072121;23;19925;-80
2021/12/29 05:59:10;;;;;;;;;;;9.70;67.90;;;;;;6071487;23;20269;-79
2021/12/29 06:01:37;;;;;;;;;;;10.40;65.20;;;;;;6074343;23;19925;-80
2021/12/29 06:04:04;;;;;;;;;;;10.90;63.30;;;;;;6095953;23;20375;-79
2021/12/29 06:06:31;;;;;;;;;;;11.20;62.10;;;;;;6073224;23;19925;-79
2021/12/29 06:08:57;;;;;;;;;;;11.50;61.10;;;;;;6073723;23;20343;-78
2021/12/29 06:11:24;;;;;;;;;;;11.70;60.30;;;;;;6072678;23;20405;-79
2021/12/29 06:13:51;;;;;;;;;;;11.90;59.60;;;;;;6072242;23;19921;-79
2021/12/29 06:16:18;;;;;;;;;;;11.90;58.90;;;;;;6073071;23;19956;-80
2021/12/29 06:18:45;;;;;;;;;;;12.10;58.60;;;;;;6072815;23;19977;-81
2021/12/29 06:21:16;;;;;;;;;;;12.10;58.40;;;;;;6073110;23;19988;-81
2021/12/29 06:23:44;;;;;;;;;;;12.10;59.30;;;;;;6098298;23;20387;-78
2021/12/29 06:26:11;;;;;;;;;;;12.10;58.80;;;;;;6072496;23;19937;-78
2021/12/29 06:28:38;;;;;;;;;;;12.10;59.00;;;;;;6071812;23;20398;-80
2021/12/29 06:31:05;;;;;;;;;;;12.00;58.90;;;;;;6072680;23;19925;-80
2021/12/29 06:33:33;;;;;;;7.22;1.45;;;12.00;58.70;;;;;;6047611;23;19928;-79
2021/12/29 06:36:00;;;;;;;1.38;0.20;;;12.10;58.80;;;;;;6071056;23;20530;-78
2021/12/29 06:38:27;;;;;;;1.35;0.35;;;12.10;58.90;;;;;;6095652;23;20444;-80
2021/12/29 06:40:54;;;;;;;0.98;0.22;;;12.10;59.00;;;;;;6071037;23;20715;-80
2021/12/29 06:43:24;;;;;;;0.60;0.20;;;12.00;59.30;;;;;;6069992;23;20492;-80
2021/12/29 06:45:51;;;;;;;1.08;0.17;;;11.90;60.00;;;;;;6071099;23;20393;-81
2021/12/29 06:48:19;;;;;;;0.52;0.10;;;11.80;60.20;;;;;;6094089;23;20399;-80
2021/12/29 06:50:46;;;;;;;0.20;0.10;;;11.90;60.30;;;;;;6070399;23;20385;-78
2021/12/29 06:53:13;;;;;;;0.43;0.20;;;11.90;59.80;;;;;;6070903;23;20384;-79
2021/12/29 06:55:43;;;;;;;7.55;0.40;;;11.80;60.60;;;;;;6070243;23;20392;-80
2021/12/29 06:58:11;;;;;;;0.90;0.20;;;11.80;60.50;;;;;;6045378;23;20386;-81
2021/12/29 07:00:38;;;;;;;4.40;0.13;;;11.80;60.60;;;;;;6069571;23;20389;-77
2021/12/29 07:03:06;;;;;;;0.73;0.17;;;11.90;60.30;;;;;;6068282;23;20940;-81
2021/12/29 07:05:33;;;;;;;0.10;0.10;;;11.80;60.90;;;;;;6069248;23;20842;-78
2021/12/29 07:08:00;;;;;;;0.67;0.10;;;11.70;61.00;;;;;;6069132;23;20389;-79
2021/12/29 07:10:27;;;;;;;1.70;0.10;;;11.80;61.00;;;;;;6070300;23;20397;-78
2021/12/29 07:12:54;;;;;;;0.80;0.08;;;11.70;61.10;;;;;;6070579;23;20457;-78
2021/12/29 07:15:21;;;;;;;0.05;0.00;;;11.80;61.10;;;;;;6069970;23;20374;-81
2021/12/29 07:17:48;;;;;;;0.00;0.00;;;11.70;61.30;;;;;;6070585;23;20921;-80
2021/12/29 07:20:15;;;;;;;0.10;0.00;;;11.70;61.60;;;;;;6096058;23;20385;-80
2021/12/29 07:22:42;;;;;;;0.17;0.10;;;11.70;61.70;;;;;;6071379;23;20440;-80
2021/12/29 07:25:09;;;;;;;0.37;0.10;;;11.70;61.40;;;;;;6094939;23;20507;-81
2021/12/29 07:27:36;;;;;;;1.30;0.10;;;11.80;61.10;;;;;;6070493;23;20723;-79
2021/12/29 07:30:04;;;;;;;0.10;0.00;;;11.80;61.00;;;;;;6068962;23;20408;-78
2021/12/29 07:32:31;;;;;;;0.10;0.00;;;11.80;61.10;;;;;;6070158;23;20381;-81
2021/12/29 07:35:00;;;;;;;0.00;0.00;;;11.70;61.00;;;;;;6047920;23;20385;-78
2021/12/29 07:37:27;;;;;;;0.10;0.10;;;11.90;60.60;;;;;;6068923;23;20480;-81
2021/12/29 07:39:54;;;;;;;0.20;0.00;;;11.90;60.60;;;;;;6071933;23;20385;-81
2021/12/29 07:42:21;;;;;;;0.80;0.10;;;11.90;60.90;;;;;;6067936;23;20389;-81
2021/12/29 07:44:49;;;;;;;0.20;0.00;;;12.00;60.80;;;;;;6070020;23;20369;-80
2021/12/29 07:47:17;;;;;;;0.20;0.00;;;12.60;59.10;;;;;;6091287;23;20460;-81
2021/12/29 07:49:44;;;;;;;0.30;0.10;;;13.20;57.10;;;;;;6097831;23;20376;-81
2021/12/29 07:52:11;;;;;;;0.08;0.08;;;13.30;56.20;;;;;;6097040;23;20427;-78
2021/12/29 07:54:38;;;;;;;0.20;0.10;;;13.10;56.70;;;;;;6102284;23;20411;-79
2021/12/29 07:57:05;;;;;;;0.10;0.00;;;12.80;57.40;;;;;;6100694;23;20902;-81
2021/12/29 07:59:32;;;;;;;0.40;0.10;;;12.60;58.20;;;;;;6097762;23;20844;-79
2021/12/29 08:01:59;;;;;;;0.00;0.00;;;12.60;58.30;;;;;;6100695;23;20868;-82
2021/12/29 08:04:26;;;;;;;0.00;0.00;;;12.70;58.20;;;;;;6098532;23;20825;-81
2021/12/29 08:06:53;;;;;;;;;;;12.80;57.70;;;;;;6108708;23;20089;-78
2021/12/29 08:09:21;;;;;;;;;;;12.80;58.10;;;;;;6108822;23;19916;-83
2021/12/29 08:11:49;;;;;;;;;;;12.70;58.10;;;;;;6104908;23;20435;-83
2021/12/29 08:14:16;;;;;;;;;;;12.60;58.30;;;;;;6109228;23;19917;-81
2021/12/29 08:16:43;;;;;;;;;;;12.50;58.50;;;;;;6101952;23;20290;-82
2021/12/29 08:19:10;;;;;;;;;;;12.50;58.90;;;;;;6133458;23;20344;-79
2021/12/29 08:21:37;;;;;;;;;;;12.50;59.10;;;;;;6103560;23;19923;-80
2021/12/29 08:24:04;;;;;;;;;;;12.50;58.60;;;;;;6103543;23;19924;-80
2021/12/29 08:26:31;;;;;;;;;;;12.70;58.60;;;;;;6103481;23;19917;-78
2021/12/29 08:28:58;;;;;;;;;;;12.70;58.20;;;;;;6078973;23;19932;-79
2021/12/29 08:31:25;;;;;;;;;;;12.80;57.90;;;;;;6129035;23;19920;-80
2021/12/29 08:33:52;;;;;;;;;;;12.90;57.80;;;;;;6102755;23;19917;-79
2021/12/29 08:36:19;;;;;;;;;;;12.90;57.40;;;;;;6102936;23;19976;-80
2021/12/29 08:38:46;;;;;;;;;;;13.00;58.10;;;;;;6102038;23;19976;-78
2021/12/29 08:41:13;;;;;;;;;;;13.10;57.10;;;;;;6103205;23;19917;-81
2021/12/29 08:43:40;;;;;;;;;;;13.20;56.70;;;;;;6104201;23;19921;-80
2021/12/29 08:46:07;;;;;;;;;;;13.30;56.60;;;;;;6102647;23;19968;-79
2021/12/29 08:48:37;;;;;;;;;;;13.40;56.10;;;;;;6103670;23;19988;-78
2021/12/29 08:51:04;;;;;;;;;;;13.50;55.90;;;;;;6102137;23;19932;-78
2021/12/29 08:53:31;;;;;;;;;;;13.60;56.50;;;;;;6103488;23;20306;-83
2021/12/29 08:55:58;;;;;;;;;;;13.60;55.40;;;;;;6132976;23;20338;-81
2021/12/29 08:58:25;;;;;;;;;;;13.70;55.40;;;;;;6104279;23;20278;-82
2021/12/29 09:00:53;;;;;;;0.20;0.00;;;13.80;55.30;;;;;;6102935;23;19925;-79
2021/12/29 09:03:21;;;;;;;0.17;0.03;;;13.90;55.00;;;;;;6102579;23;20030;-80
2021/12/29 09:05:49;;;;;;;1.08;0.03;;;13.90;54.80;;;;;;6106169;23;20105;-82
2021/12/29 09:08:17;;;;;;;0.25;0.00;;;14.00;55.00;;;;;;6102039;23;20029;-81
2021/12/29 09:10:44;;;;;;;1.85;0.10;;;14.00;55.10;;;;;;6103227;23;20084;-81
2021/12/29 09:13:13;;;;;;;0.85;0.00;;;14.00;54.80;;;;;;6100228;23;20025;-84
2021/12/29 09:15:40;;;;;;;;;;;14.10;54.50;;;;;;6101521;23;20029;-78
2021/12/29 09:18:07;;;;;;;;;;;14.20;54.60;;;;;;6077892;23;20064;-78
2021/12/29 09:20:36;;;;;;;0.20;0.10;;;14.30;54.80;;;;;;6101998;23;20330;-80
2021/12/29 09:23:06;;;;;;;1.63;0.00;;;14.30;54.40;;;;;;6102540;23;20022;-78
2021/12/29 09:25:37;;;;;;;1.90;0.08;;;14.30;54.50;;;;;;6079118;23;20022;-80
2021/12/29 09:28:05;;;;;;;0.15;0.00;;;14.40;54.50;;;;;;6128966;23;20030;-81
2021/12/29 09:30:34;;;;;;;1.17;0.00;;;14.50;54.20;;;;;;6099838;23;20034;-79
2021/12/29 09:33:01;;;;;;;;;;;14.60;54.10;;;;;;6101565;23;20077;-81
2021/12/29 09:35:29;;;;;;;0.55;0.05;;;14.60;54.00;;;;;;6102253;23;19917;-80
2021/12/29 09:38:04;;;;;;;;;;;14.70;54.00;;;;;;6127126;23;20025;-80
2021/12/29 09:40:31;;;;;;;;;;;14.70;54.00;;;;;;6102135;23;19924;-79
2021/12/29 09:42:58;;;;;;;;;;;14.70;54.00;;;;;;6101011;23;20294;-81
2021/12/29 09:45:25;;;;;;;;;;;14.80;53.90;;;;;;6100206;23;19921;-79
2021/12/29 09:47:55;;;;;;;;;;;14.80;53.60;;;;;;6101008;23;19996;-79
2021/12/29 09:50:22;;;;;;;;;;;14.70;53.70;;;;;;6126656;23;20231;-80
2021/12/29 09:52:48;;;;;;;;;;;14.70;53.90;;;;;;6102130;23;19967;-81
2021/12/29 09:55:17;;;;;;;;;;;14.70;54.10;;;;;;6101310;23;19948;-81
2021/12/29 09:57:45;;;;;;;;;;;14.70;55.10;;;;;;6103083;23;19921;-79
2021/12/29 10:00:33;;;;;;;;;;;14.80;54.20;;;;;;6100091;23;20330;-80
2021/12/29 10:03:03;;;;;;;;;;;14.80;54.10;;;;;;6101362;23;19920;-78
2021/12/29 10:05:30;;;;;;;;;;;14.90;53.90;;;;;;6102317;23;19927;-80
2021/12/29 10:08:00;;;;;;;;;;;14.90;54.10;;;;;;6127127;23;19921;-81
2021/12/29 10:10:27;;;;;;;;;;;15.00;53.90;;;;;;6100372;23;19921;-78
2021/12/29 10:12:55;;;;;;;;;;;15.00;53.60;;;;;;6101516;23;19920;-79
2021/12/29 10:15:32;;;;;;;;;;;15.00;54.30;;;;;;6104772;23;19917;-78
2021/12/29 10:18:04;;;;;;;;;;;14.90;54.20;;;;;;6127587;23;19920;-79
2021/12/29 10:20:31;;;;;;;;;;;14.90;54.00;;;;;;6100560;23;19964;-78
2021/12/29 10:22:58;;;;;;;;;;;14.90;54.40;;;;;;6100440;23;20281;-81
2021/12/29 10:25:32;;;;;;;;;;;14.90;54.40;;;;;;6100880;23;20245;-81
2021/12/29 10:28:00;;;;;;;;;;;15.00;54.40;;;;;;6129271;23;19925;-81
2021/12/29 10:30:31;;;;;;;;;;;15.10;54.20;;;;;;6125433;23;20334;-78
2021/12/29 10:33:08;;;;;;;;;;;15.20;53.90;;;;;;6079760;23;19927;-80
2021/12/29 10:35:35;;;;;;;;;;;15.20;54.40;;;;;;6101771;23;19936;-78
2021/12/29 10:38:31;;;;;;;;;;;15.30;54.30;;;;;;6102910;23;19939;-78
2021/12/29 10:41:02;;;;;;;;;;;15.30;54.40;;;;;;6094905;23;19924;-77
2021/12/29 10:43:29;;;;;;;;;;;15.30;54.10;;;;;;6104625;23;19971;-80
2021/12/29 10:45:57;;;;;;;;;;;15.40;54.00;;;;;;6104199;23;19948;-78
2021/12/29 10:48:29;;;;;;;;;;;15.50;54.30;;;;;;6100286;23;20351;-80
2021/12/29 10:51:00;;;;;;;;;;;15.60;53.90;;;;;;6100041;23;19917;-80
2021/12/29 10:53:29;;;;;;;0.10;0.10;;;15.60;54.30;;;;;;6100973;23;19984;-79
2021/12/29 10:55:56;;;;;;;0.22;0.10;;;15.70;54.00;;;;;;6100240;23;20451;-77
2021/12/29 10:58:26;;;;;;;1.35;0.03;;;15.80;53.40;;;;;;6099315;23;20502;-77
2021/12/29 11:01:10;;;;;;;0.10;0.10;;;15.80;53.60;;;;;;6098470;23;20486;-77
2021/12/29 11:03:50;;;;;;;0.75;0.08;;;15.90;53.40;;;;;;6098837;23;20053;-78
2021/12/29 11:06:23;;;;;;;0.65;0.20;;;15.90;53.70;;;;;;6099352;23;20463;-81
2021/12/29 11:08:50;;;;;;;0.10;0.00;;;15.90;53.80;;;;;;6099596;23;20054;-82
2021/12/29 11:11:19;;;;;;;0.32;0.05;;;15.90;53.70;;;;;;6099784;23;20486;-80
2021/12/29 11:13:46;;;;;;;0.10;0.10;;;16.00;53.50;;;;;;6098347;23;20022;-82
2021/12/29 11:16:17;;;;;;;0.10;0.10;;;16.00;53.50;;;;;;6129576;23;20077;-81
2021/12/29 11:18:52;;;;;;;0.30;0.22;;;15.80;54.00;;;;;;6101103;23;20057;-80
2021/12/29 11:21:42;;;;;;;0.20;0.10;;;15.80;54.30;;;;;;6101689;23;20088;-82
2021/12/29 11:24:23;;;;;;;0.22;0.10;;;15.70;54.70;;;;;;6102656;23;21250;-78
2021/12/29 11:26:51;;;;;;;0.00;0.00;;;15.80;54.40;;;;;;6124327;23;20110;-79
2021/12/29 11:29:19;;;;;;;;;;;15.70;54.10;;;;;;6100043;23;20097;-81
2021/12/29 11:31:48;;;;;;;;;;;15.70;54.60;;;;;;6105132;23;19917;-81
2021/12/29 11:34:24;;;;;;;0.13;0.00;;;15.80;54.50;;;;;;6099420;23;19925;-80
2021/12/29 11:37:07;;;;;;;0.30;0.05;;;15.70;54.70;;;;;;6099889;23;20045;-78
2021/12/29 11:39:35;;;;;;;;;;;15.60;54.90;;;;;;6105489;23;20050;-80
2021/12/29 11:42:04;;;;;;;;;;;15.60;56.50;;;;;;6106430;23;19921;-80
2021/12/29 11:44:31;;;;;;;0.00;0.00;;;15.50;55.70;;;;;;6103390;23;19917;-81
2021/12/29 11:46:58;;;;;;;0.10;0.10;;;15.60;55.90;;;;;;6098912;23;20029;-79
2021/12/29 11:49:26;;;;;;;0.20;0.10;;;15.70;55.80;;;;;;6101842;23;20040;-78
2021/12/29 11:52:25;;;;;;;0.05;0.05;;;15.70;55.90;;;;;;6099091;23;20022;-78
2021/12/29 11:55:06;;;;;;;0.30;0.00;;;15.70;55.40;;;;;;6084765;23;20022;-78
2021/12/29 11:57:35;;;;;;;0.05;0.05;;;15.80;55.10;;;;;;6102340;23;20026;-80
2021/12/29 12:00:22;;;;;;;2.75;0.10;;;15.90;55.00;;;;;;6099960;23;20026;-77
2021/12/29 12:02:52;;;;;;;0.10;0.10;;;15.90;54.70;;;;;;6098159;23;20030;-79
2021/12/29 12:05:37;;;;;;;0.20;0.10;;;16.10;54.60;;;;;;6099524;23;20022;-79
2021/12/29 12:08:10;;;;;;;1.55;0.10;;;16.10;54.10;;;;;;6100701;23;20061;-79
2021/12/29 12:10:39;;;;;;;0.20;0.10;;;16.20;54.80;;;;;;6099898;23;20080;-82
2021/12/29 12:13:23;;;;;;;0.28;0.10;;;16.30;54.10;;;;;;6099079;23;20085;-78
2021/12/29 12:15:52;;;;;;;0.15;0.10;;;16.50;53.40;;;;;;6098684;23;20036;-78
2021/12/29 12:18:19;;;;;;;0.10;0.00;;;16.60;53.70;;;;;;6099443;23;20434;-80
2021/12/29 12:20:50;;;;;;;0.30;0.20;;;16.60;53.40;;;;;;6098663;23;20431;-79
2021/12/29 12:23:28;;;;;;;0.13;0.10;;;16.70;52.70;;;;;;6099301;23;20480;-78
2021/12/29 12:26:10;;;;;;;0.55;0.10;;;16.70;53.20;;;;;;6098896;23;20387;-79
2021/12/29 12:28:48;;;;;;;0.10;0.10;;;16.90;52.20;;;;;;6100394;23;20372;-79
2021/12/29 12:31:23;;;;;;;0.50;0.20;;;17.00;52.20;;;;;;6096092;23;20426;-81
2021/12/29 12:33:51;;;;;;;1.40;0.10;;;17.00;52.40;;;;;;6101127;23;20411;-80
2021/12/29 12:36:19;;;;;;;0.40;0.10;;;17.00;52.00;;;;;;6096099;23;20761;-82
2021/12/29 12:38:47;;;;;;;0.27;0.10;;;17.10;52.00;;;;;;6099316;23;20375;-79
2021/12/29 12:41:16;;;;;;;0.13;0.10;;;17.10;51.80;;;;;;6100942;23;20391;-80
2021/12/29 12:43:53;;;;;;;0.25;0.10;;;17.20;52.20;;;;;;6100835;23;20388;-79
2021/12/29 12:46:43;;;;;;;0.40;0.10;;;17.30;51.80;;;;;;6096975;23;20538;-80
2021/12/29 12:49:31;;;;;;;0.30;0.20;;;17.40;51.10;;;;;;6127116;23;20379;-80
2021/12/29 12:52:00;;;;;;;0.55;0.35;;;17.50;50.60;;;;;;6099895;23;20454;-80
2021/12/29 12:54:30;;;;;;;1.20;0.10;;;17.30;51.20;;;;;;6126163;23;20419;-83
2021/12/29 12:56:59;;;;;;;0.50;0.20;;;17.30;50.80;;;;;;6100424;23;20456;-78
2021/12/29 12:59:43;;;;;;;0.85;0.20;;;17.50;50.50;;;;;;6081735;23;20923;-81
2021/12/29 13:02:17;;;;;;;1.00;0.10;;;17.40;50.50;;;;;;6099712;23;20372;-80
2021/12/29 13:05:05;;;;;;;0.07;0.07;;;17.30;50.80;;;;;;6101524;23;20416;-80
2021/12/29 13:07:32;;;;;;;0.40;0.20;;;17.20;51.00;;;;;;6099149;23;20439;-79
2021/12/29 13:10:00;;;;;;;0.17;0.10;;;17.20;51.30;;;;;;6101235;23;20387;-80
2021/12/29 13:12:34;;;;;;;0.20;0.10;;;17.10;51.50;;;;;;6099159;23;20415;-79
2021/12/29 13:15:06;;;;;;;0.20;0.10;;;16.90;51.60;;;;;;6101219;23;20379;-81
2021/12/29 13:17:33;;;;;;;0.30;0.10;;;16.90;51.90;;;;;;6101011;23;20434;-79
2021/12/29 13:20:02;;;;;;;0.65;0.15;;;16.70;52.00;;;;;;6099564;23;20379;-78
2021/12/29 13:22:33;;;;;;;1.27;0.20;;;16.70;52.50;;;;;;6099698;23;20430;-80
2021/12/29 13:25:09;;;;;;;0.47;0.20;;;16.80;52.20;;;;;;6098779;23;20387;-79
2021/12/29 13:27:38;;;;;;;0.28;0.10;;;17.00;52.00;;;;;;6100928;23;20876;-79
2021/12/29 13:30:13;;;;;;;0.50;0.10;;;17.10;51.10;;;;;;6100059;23;20383;-79
2021/12/29 13:32:51;;;;;;;0.85;0.10;;;17.20;50.90;;;;;;6099510;23;20375;-81
2021/12/29 13:35:24;;;;;;;0.90;0.20;;;17.30;51.00;;;;;;6101653;23;20379;-82
2021/12/29 13:37:52;;;;;;;0.40;0.20;;;17.40;51.00;;;;;;6099916;23;20384;-82
2021/12/29 13:40:27;;;;;;;0.22;0.10;;;17.40;50.80;;;;;;6100674;23;20368;-81
2021/12/29 13:42:54;;;;;;;0.40;0.10;;;17.50;50.40;;;;;;6100388;23;20454;-82
2021/12/29 13:45:24;;;;;;;0.10;0.05;;;17.60;50.30;;;;;;6099794;23;20438;-82
2021/12/29 13:47:51;;;;;;;0.20;0.20;;;17.50;50.10;;;;;;6100959;23;20713;-81
2021/12/29 13:50:18;;;;;;;0.30;0.03;;;17.40;50.80;;;;;;6127667;23;20376;-81
2021/12/29 13:52:57;;;;;;;2.15;0.10;;;17.40;50.90;;;;;;6076665;23;20387;-79
2021/12/29 13:55:33;;;;;;;0.47;0.10;;;17.50;50.70;;;;;;6098684;23;20939;-78
2021/12/29 13:58:01;;;;;;;0.40;0.00;;;17.50;50.80;;;;;;6099673;23;20379;-81
2021/12/29 14:00:29;;;;;;;0.32;0.20;;;17.50;50.60;;;;;;6099871;23;20384;-82
2021/12/29 14:02:57;;;;;;;0.40;0.20;;;17.50;50.80;;;;;;6124878;23;20380;-81
2021/12/29 14:05:44;;;;;;;0.70;0.10;;;17.40;51.20;;;;;;6097970;23;21328;-80